• Join FlightAware (Why Join?)
  • Login
  • US Flag 
09:50AM EST


 

Airport Tracker/Info


-or-


 

Live Flight TrackerFlight Track Log ✈ EJA831 ✈ 22-Nov-2013 ✈ KUNV - KTEB

Flight Track Log - Related Links

Times and Time Zones

All times are in EST time to prevent confusion due to time zone crossing. See the EJA831 flight status page for this flight to view local times or setup timezone preferences in your user account.

Time Position Orientation Groundspeed Altitude Reporting Facility
EST Latitude Longitude Course Direction KTS MPH feet Rate Location/Type
11:12AM 40.8144 -77.8842 73° East 330 380 4,200  Level New York Center
11:13AM 40.7817 -77.8011 118° Southeast 204 235 7,000 3,120 Climbing New York Center
11:14AM 40.8089 -77.6942 71° East 210 242 10,500 3,240 Climbing New York Center
11:15AM 40.8386 -77.5764 72° East 264 304 13,500 2,580 Climbing New York Center
11:16AM 40.9396 -77.3395 73° East  Level FlightAware Approximate
11:16AM 40.8711 -77.4453 72° East 344 396 15,700  Level New York Center
11:17AM 40.9590 -77.2556 73° East  Level FlightAware Approximate
11:17AM 40.9069 -77.2867 73° East 396 456 17,000  Level New York Center
11:18AM 40.9422 -77.1389 72° East 412 474 17,000  Level New York Center
11:19AM 40.9750 -76.9936 73° East 412 474 17,000  Level New York Center
11:20AM 41.0097 -76.8456 73° East 412 474 17,000  Level New York Center
11:21AM 41.0442 -76.7000 73° East 412 474 17,000  Level New York Center
11:22AM 41.0786 -76.5514 73° East 417 480 17,000  Level New York Center
11:23AM 41.1128 -76.4056 73° East 411 473 17,000  Level New York Center
11:24AM 41.1419 -76.2731 74° East 411 473 17,000  Level New York Center
11:25AM 41.1808 -76.1025 73° East 425 489 17,000  Level New York Center
11:26AM 41.2147 -75.9533 73° East 433 498 17,000  Level New York Center
11:27AM 41.2483 -75.8014 74° East 426 490 17,000 -120 Level New York Center
11:28AM 41.2625 -75.6619 82° East 426 490 16,800 -1,440 Descending New York Center
11:29AM 41.2106 -75.5036 114° Southeast 407 468 14,200 -1,980 Descending New York Center
11:30AM 41.1678 -75.3711 113° Southeast 391 450 12,900 -1,740 Descending New York Center
11:31AM 41.1247 -75.2497 115° Southeast 379 436 10,800 -1,980 Descending New York Center
11:32AM 41.0931 -75.1486 113° Southeast 343 395 9,000 -1,800 Descending New York Center
11:33AM 41.0572 -75.0472 115° Southeast 317 365 7,300 -1,500 Descending New York Center
11:34AM 41.0275 -74.9461 111° Southeast 297 342 6,100 -1,200 Descending New York Center
11:35AM 41.0275 -74.8253 90° East 298 343 5,000 -1,020 Descending New York Center
11:36AM 41.0264 -74.7289 91° East 287 330 4,100 -540 Descending New York Center
11:37AM 41.0261 -74.6133 90° East 287 330 4,000  Descending New York Center
11:38AM 41.0272 -74.5172 89° East 287 330 4,100 -180 Climbing New York Center
11:39AM 41.0325 -74.4131 86° East 273 314 3,700 -660 Descending New York Center
11:40AM 41.0333 -74.3500 89° East 248 285 3,100 -480 Descending New York TRACON
11:41AM 41.0500 -74.2667 75° East 247 284 3,000 -540 Descending New York TRACON
11:42AM 41.0333 -74.1833 105° East 237 273 2,100 -540 Descending New York TRACON
11:43AM 41.0333 -74.1000 90° East 204 235 2,000  Descending New York TRACON
11:44AM 40.9833 -74.0500 143° Southeast 199 229 2,100 -60 Climbing New York TRACON
11:45AM 40.9500 -74.0500 180° South 172 198 1,900 -480 Descending New York TRACON
11:46AM 40.9167 -74.0500 180° South 128 147 1,200 -720 Descending New York TRACON
11:47AM 40.8833 -74.0500 180° South 115 132 500 -720 Descending New York TRACON
11:49AM 40.8500 -74.0500 180° South  Level FlightAware Approximate